Terminal Aerodrome Forecast
Issued by NWS

Home | Current Version | Previous Version | Text Only | Print | Product List | Glossary On
Versions: 1 2 3 4 5 6 7 8 9 10 11 12 13 14 15 16
302
FTUS42 KTAE 132320
TAFVLD
TAF
KVLD 132320Z 1400/1424 VRB03KT P6SM SKC
     FM141500 09010KT P6SM SKC
     FM141800 12010KT P6SM BKN040=

USA.gov is the U.S. government's official web portal to all federal, state and local government web resources and services.